sensor_id;sensor_type;location;lat;lon;timestamp;P1;durP1;ratioP1;P2;durP2;ratioP2
13061;SDS011;6597;52.218;9.882;2024-02-26T00:01:28;2.57;;;2.00;;
13061;SDS011;6597;52.218;9.882;2024-02-26T00:03:59;2.83;;;2.30;;
13061;SDS011;6597;52.218;9.882;2024-02-26T00:06:27;3.40;;;2.40;;
13061;SDS011;6597;52.218;9.882;2024-02-26T00:08:53;3.10;;;2.30;;
13061;SDS011;6597;52.218;9.882;2024-02-26T00:11:20;6.77;;;2.80;;
13061;SDS011;6597;52.218;9.882;2024-02-26T00:13:47;3.20;;;2.17;;
13061;SDS011;6597;52.218;9.882;2024-02-26T00:16:13;3.10;;;2.40;;
13061;SDS011;6597;52.218;9.882;2024-02-26T00:18:40;3.07;;;2.70;;
13061;SDS011;6597;52.218;9.882;2024-02-26T00:21:08;2.67;;;2.27;;
13061;SDS011;6597;52.218;9.882;2024-02-26T00:23:34;2.97;;;2.47;;
13061;SDS011;6597;52.218;9.882;2024-02-26T00:26:01;5.13;;;2.80;;
13061;SDS011;6597;52.218;9.882;2024-02-26T00:28:28;3.80;;;2.57;;
13061;SDS011;6597;52.218;9.882;2024-02-26T00:30:55;3.40;;;2.60;;
13061;SDS011;6597;52.218;9.882;2024-02-26T00:33:22;3.23;;;2.70;;
13061;SDS011;6597;52.218;9.882;2024-02-26T00:35:48;2.90;;;2.40;;
13061;SDS011;6597;52.218;9.882;2024-02-26T00:38:16;2.80;;;2.60;;
13061;SDS011;6597;52.218;9.882;2024-02-26T00:40:43;3.70;;;2.53;;
13061;SDS011;6597;52.218;9.882;2024-02-26T00:43:10;5.77;;;2.30;;
13061;SDS011;6597;52.218;9.882;2024-02-26T00:45:36;3.03;;;2.30;;
13061;SDS011;6597;52.218;9.882;2024-02-26T00:48:03;2.80;;;2.23;;
13061;SDS011;6597;52.218;9.882;2024-02-26T00:50:30;4.70;;;2.80;;
13061;SDS011;6597;52.218;9.882;2024-02-26T00:52:57;3.40;;;2.70;;
13061;SDS011;6597;52.218;9.882;2024-02-26T00:55:24;4.23;;;3.17;;
13061;SDS011;6597;52.218;9.882;2024-02-26T00:57:51;3.70;;;3.10;;
13061;SDS011;6597;52.218;9.882;2024-02-26T01:00:18;3.47;;;3.00;;
13061;SDS011;6597;52.218;9.882;2024-02-26T01:02:45;3.83;;;3.27;;
13061;SDS011;6597;52.218;9.882;2024-02-26T01:05:12;3.27;;;2.40;;
13061;SDS011;6597;52.218;9.882;2024-02-26T01:07:39;3.00;;;2.70;;
13061;SDS011;6597;52.218;9.882;2024-02-26T01:10:06;3.83;;;3.00;;
13061;SDS011;6597;52.218;9.882;2024-02-26T01:12:34;2.80;;;2.60;;
13061;SDS011;6597;52.218;9.882;2024-02-26T01:15:01;3.53;;;2.70;;
13061;SDS011;6597;52.218;9.882;2024-02-26T01:17:28;4.57;;;2.93;;
13061;SDS011;6597;52.218;9.882;2024-02-26T01:19:55;5.73;;;2.83;;
13061;SDS011;6597;52.218;9.882;2024-02-26T01:22:21;3.27;;;2.60;;
13061;SDS011;6597;52.218;9.882;2024-02-26T01:24:48;3.40;;;3.03;;
13061;SDS011;6597;52.218;9.882;2024-02-26T01:27:15;4.03;;;3.20;;
13061;SDS011;6597;52.218;9.882;2024-02-26T01:29:43;4.53;;;3.13;;
13061;SDS011;6597;52.218;9.882;2024-02-26T01:32:09;6.27;;;3.73;;
13061;SDS011;6597;52.218;9.882;2024-02-26T01:34:36;5.20;;;3.40;;
13061;SDS011;6597;52.218;9.882;2024-02-26T01:37:03;4.87;;;3.20;;
13061;SDS011;6597;52.218;9.882;2024-02-26T01:39:29;4.30;;;3.63;;
13061;SDS011;6597;52.218;9.882;2024-02-26T01:41:56;5.20;;;3.70;;
13061;SDS011;6597;52.218;9.882;2024-02-26T01:44:22;5.00;;;3.30;;
13061;SDS011;6597;52.218;9.882;2024-02-26T01:46:50;4.93;;;3.30;;
13061;SDS011;6597;52.218;9.882;2024-02-26T01:49:18;4.27;;;3.10;;
13061;SDS011;6597;52.218;9.882;2024-02-26T01:51:45;5.27;;;3.57;;
13061;SDS011;6597;52.218;9.882;2024-02-26T01:54:12;6.20;;;3.43;;
13061;SDS011;6597;52.218;9.882;2024-02-26T01:56:38;3.57;;;3.20;;
13061;SDS011;6597;52.218;9.882;2024-02-26T01:59:07;4.43;;;3.33;;
13061;SDS011;6597;52.218;9.882;2024-02-26T02:01:34;6.97;;;3.10;;
13061;SDS011;6597;52.218;9.882;2024-02-26T02:04:04;4.93;;;3.57;;
13061;SDS011;6597;52.218;9.882;2024-02-26T02:06:30;4.83;;;3.23;;
13061;SDS011;6597;52.218;9.882;2024-02-26T02:08:57;5.53;;;3.67;;
13061;SDS011;6597;52.218;9.882;2024-02-26T02:11:25;4.47;;;3.40;;
13061;SDS011;6597;52.218;9.882;2024-02-26T02:13:52;5.30;;;3.57;;
13061;SDS011;6597;52.218;9.882;2024-02-26T02:16:20;5.00;;;3.30;;
13061;SDS011;6597;52.218;9.882;2024-02-26T02:18:46;4.00;;;3.43;;
13061;SDS011;6597;52.218;9.882;2024-02-26T02:21:14;5.47;;;3.23;;
13061;SDS011;6597;52.218;9.882;2024-02-26T02:23:40;5.70;;;3.40;;
13061;SDS011;6597;52.218;9.882;2024-02-26T02:26:11;8.07;;;3.50;;
13061;SDS011;6597;52.218;9.882;2024-02-26T02:28:38;5.13;;;3.47;;
13061;SDS011;6597;52.218;9.882;2024-02-26T02:31:06;5.73;;;3.17;;
13061;SDS011;6597;52.218;9.882;2024-02-26T02:33:33;5.10;;;3.30;;
13061;SDS011;6597;52.218;9.882;2024-02-26T02:36:00;6.17;;;3.53;;
13061;SDS011;6597;52.218;9.882;2024-02-26T02:38:28;6.43;;;3.47;;
13061;SDS011;6597;52.218;9.882;2024-02-26T02:40:56;5.23;;;3.03;;
13061;SDS011;6597;52.218;9.882;2024-02-26T02:43:23;6.73;;;3.40;;
13061;SDS011;6597;52.218;9.882;2024-02-26T02:45:51;4.97;;;3.33;;
13061;SDS011;6597;52.218;9.882;2024-02-26T02:48:17;5.53;;;3.87;;
13061;SDS011;6597;52.218;9.882;2024-02-26T02:50:44;5.37;;;4.00;;
13061;SDS011;6597;52.218;9.882;2024-02-26T02:53:11;7.30;;;3.83;;
13061;SDS011;6597;52.218;9.882;2024-02-26T02:55:39;8.03;;;3.70;;
13061;SDS011;6597;52.218;9.882;2024-02-26T02:58:06;5.53;;;3.70;;
13061;SDS011;6597;52.218;9.882;2024-02-26T03:00:32;15.40;;;4.20;;
13061;SDS011;6597;52.218;9.882;2024-02-26T03:02:59;6.13;;;3.83;;
13061;SDS011;6597;52.218;9.882;2024-02-26T03:05:25;5.37;;;3.73;;
13061;SDS011;6597;52.218;9.882;2024-02-26T03:07:52;5.63;;;3.73;;
13061;SDS011;6597;52.218;9.882;2024-02-26T03:10:18;6.27;;;4.10;;
13061;SDS011;6597;52.218;9.882;2024-02-26T03:12:46;6.50;;;3.97;;
13061;SDS011;6597;52.218;9.882;2024-02-26T03:15:13;5.90;;;3.80;;
13061;SDS011;6597;52.218;9.882;2024-02-26T03:17:40;6.27;;;3.60;;
13061;SDS011;6597;52.218;9.882;2024-02-26T03:20:07;4.70;;;3.80;;
13061;SDS011;6597;52.218;9.882;2024-02-26T03:22:34;4.77;;;3.50;;
13061;SDS011;6597;52.218;9.882;2024-02-26T03:25:01;5.70;;;4.10;;
13061;SDS011;6597;52.218;9.882;2024-02-26T03:27:28;4.83;;;3.73;;
13061;SDS011;6597;52.218;9.882;2024-02-26T03:29:55;7.17;;;3.47;;
13061;SDS011;6597;52.218;9.882;2024-02-26T03:32:22;6.07;;;3.47;;
13061;SDS011;6597;52.218;9.882;2024-02-26T03:34:49;4.87;;;3.80;;
13061;SDS011;6597;52.218;9.882;2024-02-26T03:37:19;5.00;;;3.53;;
13061;SDS011;6597;52.218;9.882;2024-02-26T03:39:45;6.83;;;3.70;;
13061;SDS011;6597;52.218;9.882;2024-02-26T03:42:12;9.13;;;4.43;;
13061;SDS011;6597;52.218;9.882;2024-02-26T03:44:38;5.77;;;3.37;;
13061;SDS011;6597;52.218;9.882;2024-02-26T03:47:06;6.03;;;4.03;;
13061;SDS011;6597;52.218;9.882;2024-02-26T03:49:33;5.60;;;3.90;;
13061;SDS011;6597;52.218;9.882;2024-02-26T03:51:59;6.63;;;3.53;;
13061;SDS011;6597;52.218;9.882;2024-02-26T03:54:26;3.90;;;3.13;;
13061;SDS011;6597;52.218;9.882;2024-02-26T03:56:52;5.87;;;3.40;;
13061;SDS011;6597;52.218;9.882;2024-02-26T03:59:21;4.93;;;3.13;;
13061;SDS011;6597;52.218;9.882;2024-02-26T04:01:50;5.47;;;3.30;;
13061;SDS011;6597;52.218;9.882;2024-02-26T04:04:17;4.03;;;3.27;;
13061;SDS011;6597;52.218;9.882;2024-02-26T04:06:44;5.03;;;3.30;;
13061;SDS011;6597;52.218;9.882;2024-02-26T04:09:11;4.87;;;3.63;;
13061;SDS011;6597;52.218;9.882;2024-02-26T04:11:38;3.63;;;2.90;;
13061;SDS011;6597;52.218;9.882;2024-02-26T04:14:04;3.30;;;3.00;;
13061;SDS011;6597;52.218;9.882;2024-02-26T04:16:33;4.93;;;3.00;;
13061;SDS011;6597;52.218;9.882;2024-02-26T04:19:00;3.30;;;2.87;;
13061;SDS011;6597;52.218;9.882;2024-02-26T04:21:28;4.27;;;2.80;;
13061;SDS011;6597;52.218;9.882;2024-02-26T04:23:54;3.27;;;2.90;;
13061;SDS011;6597;52.218;9.882;2024-02-26T04:26:21;4.03;;;2.77;;
13061;SDS011;6597;52.218;9.882;2024-02-26T04:28:47;4.07;;;2.90;;
13061;SDS011;6597;52.218;9.882;2024-02-26T04:31:14;4.20;;;2.90;;
13061;SDS011;6597;52.218;9.882;2024-02-26T04:33:41;4.83;;;3.00;;
13061;SDS011;6597;52.218;9.882;2024-02-26T04:36:12;3.17;;;2.80;;
13061;SDS011;6597;52.218;9.882;2024-02-26T04:38:41;2.80;;;2.37;;
13061;SDS011;6597;52.218;9.882;2024-02-26T04:41:07;3.50;;;2.70;;
13061;SDS011;6597;52.218;9.882;2024-02-26T04:43:34;4.63;;;2.83;;
13061;SDS011;6597;52.218;9.882;2024-02-26T04:46:06;3.77;;;3.20;;
13061;SDS011;6597;52.218;9.882;2024-02-26T04:48:34;6.33;;;3.10;;
13061;SDS011;6597;52.218;9.882;2024-02-26T04:51:01;3.93;;;2.80;;
13061;SDS011;6597;52.218;9.882;2024-02-26T04:53:28;3.17;;;2.57;;
13061;SDS011;6597;52.218;9.882;2024-02-26T04:55:56;5.63;;;2.90;;
13061;SDS011;6597;52.218;9.882;2024-02-26T04:58:22;3.73;;;2.90;;
13061;SDS011;6597;52.218;9.882;2024-02-26T05:00:49;4.37;;;3.10;;
13061;SDS011;6597;52.218;9.882;2024-02-26T05:03:16;3.67;;;2.73;;
13061;SDS011;6597;52.218;9.882;2024-02-26T05:05:42;4.30;;;2.90;;
13061;SDS011;6597;52.218;9.882;2024-02-26T05:08:09;3.43;;;2.57;;
13061;SDS011;6597;52.218;9.882;2024-02-26T05:10:36;4.47;;;3.13;;
13061;SDS011;6597;52.218;9.882;2024-02-26T05:13:07;5.30;;;3.10;;
13061;SDS011;6597;52.218;9.882;2024-02-26T05:15:41;3.90;;;3.03;;
13061;SDS011;6597;52.218;9.882;2024-02-26T05:18:08;3.97;;;3.57;;
13061;SDS011;6597;52.218;9.882;2024-02-26T05:20:35;3.77;;;2.90;;
13061;SDS011;6597;52.218;9.882;2024-02-26T05:23:03;3.97;;;3.07;;
13061;SDS011;6597;52.218;9.882;2024-02-26T05:25:29;7.63;;;3.60;;
13061;SDS011;6597;52.218;9.882;2024-02-26T05:27:56;5.83;;;3.33;;
13061;SDS011;6597;52.218;9.882;2024-02-26T05:30:24;5.73;;;3.70;;
13061;SDS011;6597;52.218;9.882;2024-02-26T05:32:52;8.80;;;3.47;;
13061;SDS011;6597;52.218;9.882;2024-02-26T05:35:18;4.63;;;3.40;;
13061;SDS011;6597;52.218;9.882;2024-02-26T05:37:45;4.93;;;3.47;;
13061;SDS011;6597;52.218;9.882;2024-02-26T05:40:11;5.47;;;3.60;;
13061;SDS011;6597;52.218;9.882;2024-02-26T05:42:38;4.50;;;3.20;;
13061;SDS011;6597;52.218;9.882;2024-02-26T05:45:05;7.03;;;3.30;;
13061;SDS011;6597;52.218;9.882;2024-02-26T05:47:34;7.30;;;3.60;;
13061;SDS011;6597;52.218;9.882;2024-02-26T05:50:01;5.10;;;3.63;;
13061;SDS011;6597;52.218;9.882;2024-02-26T05:52:27;6.60;;;3.53;;
13061;SDS011;6597;52.218;9.882;2024-02-26T05:54:54;6.60;;;3.83;;
13061;SDS011;6597;52.218;9.882;2024-02-26T05:57:21;8.80;;;3.73;;
13061;SDS011;6597;52.218;9.882;2024-02-26T05:59:47;9.47;;;4.00;;
13061;SDS011;6597;52.218;9.882;2024-02-26T06:02:14;7.87;;;4.17;;
13061;SDS011;6597;52.218;9.882;2024-02-26T06:04:42;6.17;;;3.63;;
13061;SDS011;6597;52.218;9.882;2024-02-26T06:07:08;5.30;;;4.03;;
13061;SDS011;6597;52.218;9.882;2024-02-26T06:09:35;6.60;;;3.97;;
13061;SDS011;6597;52.218;9.882;2024-02-26T06:12:01;10.00;;;4.07;;
13061;SDS011;6597;52.218;9.882;2024-02-26T06:14:28;4.70;;;3.97;;
13061;SDS011;6597;52.218;9.882;2024-02-26T06:16:54;5.77;;;3.93;;
13061;SDS011;6597;52.218;9.882;2024-02-26T06:19:21;6.73;;;4.63;;
13061;SDS011;6597;52.218;9.882;2024-02-26T06:21:49;8.70;;;3.90;;
13061;SDS011;6597;52.218;9.882;2024-02-26T06:24:16;8.33;;;4.50;;
13061;SDS011;6597;52.218;9.882;2024-02-26T06:26:42;8.20;;;4.53;;
13061;SDS011;6597;52.218;9.882;2024-02-26T06:29:09;10.07;;;5.07;;
13061;SDS011;6597;52.218;9.882;2024-02-26T06:31:35;12.70;;;4.97;;
13061;SDS011;6597;52.218;9.882;2024-02-26T06:34:02;11.73;;;4.10;;
13061;SDS011;6597;52.218;9.882;2024-02-26T06:36:28;4.47;;;3.57;;
13061;SDS011;6597;52.218;9.882;2024-02-26T06:38:57;4.57;;;3.23;;
13061;SDS011;6597;52.218;9.882;2024-02-26T06:41:24;6.53;;;4.30;;
13061;SDS011;6597;52.218;9.882;2024-02-26T06:43:52;5.37;;;4.17;;
13061;SDS011;6597;52.218;9.882;2024-02-26T06:46:19;5.30;;;4.10;;
13061;SDS011;6597;52.218;9.882;2024-02-26T06:48:47;5.33;;;3.97;;
13061;SDS011;6597;52.218;9.882;2024-02-26T06:51:14;6.00;;;4.50;;
13061;SDS011;6597;52.218;9.882;2024-02-26T06:53:40;6.67;;;4.30;;
13061;SDS011;6597;52.218;9.882;2024-02-26T06:56:08;7.80;;;4.17;;
13061;SDS011;6597;52.218;9.882;2024-02-26T06:58:34;8.63;;;4.53;;
13061;SDS011;6597;52.218;9.882;2024-02-26T07:01:01;6.23;;;4.40;;
13061;SDS011;6597;52.218;9.882;2024-02-26T07:03:28;6.50;;;4.37;;
13061;SDS011;6597;52.218;9.882;2024-02-26T07:05:55;7.77;;;4.33;;
13061;SDS011;6597;52.218;9.882;2024-02-26T07:08:22;7.07;;;4.50;;
13061;SDS011;6597;52.218;9.882;2024-02-26T07:10:48;8.30;;;4.43;;
13061;SDS011;6597;52.218;9.882;2024-02-26T07:13:16;6.93;;;4.80;;
13061;SDS011;6597;52.218;9.882;2024-02-26T07:15:42;6.73;;;4.47;;
13061;SDS011;6597;52.218;9.882;2024-02-26T07:18:09;7.50;;;4.33;;
13061;SDS011;6597;52.218;9.882;2024-02-26T07:20:36;6.67;;;3.70;;
13061;SDS011;6597;52.218;9.882;2024-02-26T07:23:02;6.63;;;4.23;;
13061;SDS011;6597;52.218;9.882;2024-02-26T07:25:29;6.83;;;4.37;;
13061;SDS011;6597;52.218;9.882;2024-02-26T07:27:55;8.37;;;4.57;;
13061;SDS011;6597;52.218;9.882;2024-02-26T07:30:23;7.97;;;5.07;;
13061;SDS011;6597;52.218;9.882;2024-02-26T07:32:50;8.07;;;4.27;;
13061;SDS011;6597;52.218;9.882;2024-02-26T07:35:17;6.43;;;3.93;;
13061;SDS011;6597;52.218;9.882;2024-02-26T07:37:43;8.20;;;4.07;;
13061;SDS011;6597;52.218;9.882;2024-02-26T07:40:10;10.00;;;4.13;;
13061;SDS011;6597;52.218;9.882;2024-02-26T07:42:37;22.47;;;4.40;;
13061;SDS011;6597;52.218;9.882;2024-02-26T07:45:04;8.50;;;4.33;;
13061;SDS011;6597;52.218;9.882;2024-02-26T07:47:33;7.87;;;3.80;;
13061;SDS011;6597;52.218;9.882;2024-02-26T07:50:02;7.33;;;3.67;;
13061;SDS011;6597;52.218;9.882;2024-02-26T07:52:29;4.80;;;3.80;;
13061;SDS011;6597;52.218;9.882;2024-02-26T07:54:56;6.33;;;3.90;;
13061;SDS011;6597;52.218;9.882;2024-02-26T07:57:23;14.97;;;3.93;;
13061;SDS011;6597;52.218;9.882;2024-02-26T07:59:49;6.60;;;4.20;;
13061;SDS011;6597;52.218;9.882;2024-02-26T08:02:16;10.07;;;4.60;;
13061;SDS011;6597;52.218;9.882;2024-02-26T08:04:44;8.17;;;4.30;;
13061;SDS011;6597;52.218;9.882;2024-02-26T08:07:10;10.57;;;4.30;;
13061;SDS011;6597;52.218;9.882;2024-02-26T08:09:37;7.80;;;3.70;;
13061;SDS011;6597;52.218;9.882;2024-02-26T08:12:04;7.63;;;3.77;;
13061;SDS011;6597;52.218;9.882;2024-02-26T08:14:31;7.67;;;3.57;;
13061;SDS011;6597;52.218;9.882;2024-02-26T08:16:58;6.40;;;3.57;;
13061;SDS011;6597;52.218;9.882;2024-02-26T08:19:25;6.80;;;3.87;;
13061;SDS011;6597;52.218;9.882;2024-02-26T08:21:53;7.03;;;4.60;;
13061;SDS011;6597;52.218;9.882;2024-02-26T08:24:20;5.03;;;3.80;;
13061;SDS011;6597;52.218;9.882;2024-02-26T08:26:46;8.07;;;4.07;;
13061;SDS011;6597;52.218;9.882;2024-02-26T08:29:13;6.70;;;4.67;;
13061;SDS011;6597;52.218;9.882;2024-02-26T08:31:39;7.57;;;5.43;;
13061;SDS011;6597;52.218;9.882;2024-02-26T08:34:06;7.40;;;4.77;;
13061;SDS011;6597;52.218;9.882;2024-02-26T08:36:33;6.03;;;4.60;;
13061;SDS011;6597;52.218;9.882;2024-02-26T08:39:01;6.07;;;4.60;;
13061;SDS011;6597;52.218;9.882;2024-02-26T08:41:29;6.03;;;4.17;;
13061;SDS011;6597;52.218;9.882;2024-02-26T08:43:55;5.17;;;3.67;;
13061;SDS011;6597;52.218;9.882;2024-02-26T08:46:23;5.87;;;3.80;;
13061;SDS011;6597;52.218;9.882;2024-02-26T08:48:50;5.63;;;3.60;;
13061;SDS011;6597;52.218;9.882;2024-02-26T08:51:16;5.50;;;3.77;;
13061;SDS011;6597;52.218;9.882;2024-02-26T08:53:43;5.77;;;3.90;;
13061;SDS011;6597;52.218;9.882;2024-02-26T08:56:10;6.33;;;4.33;;
13061;SDS011;6597;52.218;9.882;2024-02-26T08:58:41;8.57;;;4.97;;
13061;SDS011;6597;52.218;9.882;2024-02-26T09:01:08;8.27;;;4.20;;
13061;SDS011;6597;52.218;9.882;2024-02-26T09:03:35;5.80;;;4.40;;
13061;SDS011;6597;52.218;9.882;2024-02-26T09:06:01;9.17;;;4.80;;
13061;SDS011;6597;52.218;9.882;2024-02-26T09:08:28;6.10;;;4.43;;
13061;SDS011;6597;52.218;9.882;2024-02-26T09:10:54;6.47;;;4.30;;
13061;SDS011;6597;52.218;9.882;2024-02-26T09:13:22;6.20;;;3.73;;
13061;SDS011;6597;52.218;9.882;2024-02-26T09:15:49;10.67;;;4.33;;
13061;SDS011;6597;52.218;9.882;2024-02-26T09:18:16;7.30;;;4.53;;
13061;SDS011;6597;52.218;9.882;2024-02-26T09:20:42;5.53;;;4.17;;
13061;SDS011;6597;52.218;9.882;2024-02-26T09:23:09;6.70;;;4.33;;
13061;SDS011;6597;52.218;9.882;2024-02-26T09:25:35;8.00;;;4.30;;
13061;SDS011;6597;52.218;9.882;2024-02-26T09:28:02;11.87;;;4.70;;
13061;SDS011;6597;52.218;9.882;2024-02-26T09:30:30;6.83;;;4.50;;
13061;SDS011;6597;52.218;9.882;2024-02-26T09:32:57;8.30;;;4.23;;
13061;SDS011;6597;52.218;9.882;2024-02-26T09:35:24;6.20;;;4.57;;
13061;SDS011;6597;52.218;9.882;2024-02-26T09:37:52;9.43;;;4.40;;
13061;SDS011;6597;52.218;9.882;2024-02-26T09:40:19;11.20;;;4.00;;
13061;SDS011;6597;52.218;9.882;2024-02-26T09:42:45;15.93;;;4.87;;
13061;SDS011;6597;52.218;9.882;2024-02-26T09:45:12;7.40;;;3.90;;
13061;SDS011;6597;52.218;9.882;2024-02-26T09:47:45;8.77;;;4.03;;
13061;SDS011;6597;52.218;9.882;2024-02-26T09:50:14;9.73;;;4.47;;
13061;SDS011;6597;52.218;9.882;2024-02-26T09:52:43;11.80;;;4.07;;
13061;SDS011;6597;52.218;9.882;2024-02-26T09:55:09;14.17;;;4.47;;
13061;SDS011;6597;52.218;9.882;2024-02-26T09:57:36;9.33;;;4.17;;
13061;SDS011;6597;52.218;9.882;2024-02-26T10:00:04;5.87;;;4.10;;
13061;SDS011;6597;52.218;9.882;2024-02-26T10:02:36;6.57;;;3.73;;
13061;SDS011;6597;52.218;9.882;2024-02-26T10:05:07;4.33;;;3.47;;
13061;SDS011;6597;52.218;9.882;2024-02-26T10:07:38;5.27;;;3.60;;
13061;SDS011;6597;52.218;9.882;2024-02-26T10:10:05;5.13;;;3.50;;
13061;SDS011;6597;52.218;9.882;2024-02-26T10:12:34;6.47;;;3.53;;
13061;SDS011;6597;52.218;9.882;2024-02-26T10:15:00;5.27;;;3.40;;
13061;SDS011;6597;52.218;9.882;2024-02-26T10:17:27;6.07;;;3.50;;
13061;SDS011;6597;52.218;9.882;2024-02-26T10:19:54;4.50;;;3.30;;
13061;SDS011;6597;52.218;9.882;2024-02-26T10:22:23;7.57;;;3.33;;
13061;SDS011;6597;52.218;9.882;2024-02-26T10:24:49;5.30;;;3.30;;
13061;SDS011;6597;52.218;9.882;2024-02-26T10:27:16;3.77;;;3.13;;
13061;SDS011;6597;52.218;9.882;2024-02-26T10:29:42;7.53;;;3.73;;
13061;SDS011;6597;52.218;9.882;2024-02-26T10:32:09;6.67;;;3.57;;
13061;SDS011;6597;52.218;9.882;2024-02-26T10:34:38;9.87;;;3.53;;
13061;SDS011;6597;52.218;9.882;2024-02-26T10:37:06;11.57;;;3.50;;
13061;SDS011;6597;52.218;9.882;2024-02-26T10:39:35;8.23;;;3.50;;
13061;SDS011;6597;52.218;9.882;2024-02-26T10:42:03;13.07;;;3.60;;
13061;SDS011;6597;52.218;9.882;2024-02-26T10:44:34;4.73;;;3.00;;
13061;SDS011;6597;52.218;9.882;2024-02-26T10:47:01;4.50;;;3.40;;
13061;SDS011;6597;52.218;9.882;2024-02-26T10:49:28;4.03;;;3.10;;
13061;SDS011;6597;52.218;9.882;2024-02-26T10:51:55;6.20;;;2.93;;
13061;SDS011;6597;52.218;9.882;2024-02-26T10:54:22;3.40;;;2.40;;
13061;SDS011;6597;52.218;9.882;2024-02-26T10:56:53;3.40;;;2.57;;
13061;SDS011;6597;52.218;9.882;2024-02-26T10:59:22;2.37;;;2.17;;
13061;SDS011;6597;52.218;9.882;2024-02-26T11:01:49;2.83;;;2.20;;
13061;SDS011;6597;52.218;9.882;2024-02-26T11:04:17;2.93;;;2.50;;
13061;SDS011;6597;52.218;9.882;2024-02-26T11:06:44;2.47;;;1.90;;
13061;SDS011;6597;52.218;9.882;2024-02-26T11:09:12;3.37;;;2.00;;
13061;SDS011;6597;52.218;9.882;2024-02-26T11:11:40;3.47;;;2.47;;
13061;SDS011;6597;52.218;9.882;2024-02-26T11:14:09;5.53;;;2.27;;
13061;SDS011;6597;52.218;9.882;2024-02-26T11:16:36;4.23;;;2.57;;
13061;SDS011;6597;52.218;9.882;2024-02-26T11:19:04;4.37;;;2.37;;
13061;SDS011;6597;52.218;9.882;2024-02-26T11:21:33;6.47;;;2.80;;
13061;SDS011;6597;52.218;9.882;2024-02-26T11:24:06;3.67;;;2.90;;
13061;SDS011;6597;52.218;9.882;2024-02-26T11:26:34;4.10;;;2.30;;
13061;SDS011;6597;52.218;9.882;2024-02-26T11:29:05;3.23;;;2.30;;
13061;SDS011;6597;52.218;9.882;2024-02-26T11:31:37;6.80;;;2.50;;
13061;SDS011;6597;52.218;9.882;2024-02-26T11:34:06;16.73;;;8.23;;
13061;SDS011;6597;52.218;9.882;2024-02-26T11:36:33;7.60;;;4.60;;
13061;SDS011;6597;52.218;9.882;2024-02-26T11:39:00;4.40;;;3.00;;
13061;SDS011;6597;52.218;9.882;2024-02-26T11:41:26;8.00;;;2.80;;
13061;SDS011;6597;52.218;9.882;2024-02-26T11:43:57;6.77;;;3.00;;
13061;SDS011;6597;52.218;9.882;2024-02-26T11:46:27;5.20;;;3.10;;
13061;SDS011;6597;52.218;9.882;2024-02-26T11:48:58;4.87;;;2.53;;
13061;SDS011;6597;52.218;9.882;2024-02-26T11:51:26;3.87;;;2.60;;
13061;SDS011;6597;52.218;9.882;2024-02-26T11:53:54;6.80;;;3.00;;
13061;SDS011;6597;52.218;9.882;2024-02-26T11:56:23;5.10;;;2.90;;
13061;SDS011;6597;52.218;9.882;2024-02-26T11:58:57;6.20;;;3.10;;
13061;SDS011;6597;52.218;9.882;2024-02-26T12:01:41;11.17;;;3.73;;
13061;SDS011;6597;52.218;9.882;2024-02-26T12:04:13;6.57;;;3.07;;
13061;SDS011;6597;52.218;9.882;2024-02-26T12:06:42;4.93;;;3.37;;
13061;SDS011;6597;52.218;9.882;2024-02-26T12:09:11;8.23;;;3.43;;
13061;SDS011;6597;52.218;9.882;2024-02-26T12:11:39;5.80;;;3.30;;
13061;SDS011;6597;52.218;9.882;2024-02-26T12:14:07;5.77;;;3.73;;
13061;SDS011;6597;52.218;9.882;2024-02-26T12:16:35;12.63;;;3.57;;
13061;SDS011;6597;52.218;9.882;2024-02-26T12:19:05;4.30;;;2.93;;
13061;SDS011;6597;52.218;9.882;2024-02-26T12:21:33;6.33;;;3.43;;
13061;SDS011;6597;52.218;9.882;2024-02-26T12:24:09;8.47;;;3.73;;
13061;SDS011;6597;52.218;9.882;2024-02-26T12:26:37;8.73;;;3.77;;
13061;SDS011;6597;52.218;9.882;2024-02-26T12:29:04;5.33;;;3.47;;
13061;SDS011;6597;52.218;9.882;2024-02-26T12:31:31;12.13;;;3.70;;
13061;SDS011;6597;52.218;9.882;2024-02-26T12:33:58;7.23;;;3.43;;
13061;SDS011;6597;52.218;9.882;2024-02-26T12:36:26;7.30;;;3.30;;
13061;SDS011;6597;52.218;9.882;2024-02-26T12:38:53;18.90;;;3.80;;
13061;SDS011;6597;52.218;9.882;2024-02-26T12:41:20;7.67;;;3.47;;
13061;SDS011;6597;52.218;9.882;2024-02-26T12:43:47;8.30;;;3.93;;
13061;SDS011;6597;52.218;9.882;2024-02-26T12:46:13;5.00;;;3.40;;
13061;SDS011;6597;52.218;9.882;2024-02-26T12:48:41;6.87;;;4.00;;
13061;SDS011;6597;52.218;9.882;2024-02-26T12:51:09;7.73;;;4.33;;
13061;SDS011;6597;52.218;9.882;2024-02-26T12:53:37;6.77;;;4.03;;
13061;SDS011;6597;52.218;9.882;2024-02-26T12:56:05;9.23;;;4.73;;
13061;SDS011;6597;52.218;9.882;2024-02-26T12:58:32;5.70;;;3.93;;
13061;SDS011;6597;52.218;9.882;2024-02-26T13:01:00;6.80;;;3.87;;
13061;SDS011;6597;52.218;9.882;2024-02-26T13:03:27;6.30;;;3.77;;
13061;SDS011;6597;52.218;9.882;2024-02-26T13:05:55;9.47;;;4.00;;
13061;SDS011;6597;52.218;9.882;2024-02-26T13:08:22;7.43;;;3.93;;
13061;SDS011;6597;52.218;9.882;2024-02-26T13:10:51;5.40;;;3.97;;
13061;SDS011;6597;52.218;9.882;2024-02-26T13:13:18;7.13;;;4.60;;
13061;SDS011;6597;52.218;9.882;2024-02-26T13:15:44;4.83;;;3.57;;
13061;SDS011;6597;52.218;9.882;2024-02-26T13:18:12;10.77;;;4.20;;
13061;SDS011;6597;52.218;9.882;2024-02-26T13:20:39;5.33;;;3.87;;
13061;SDS011;6597;52.218;9.882;2024-02-26T13:23:07;11.43;;;4.60;;
13061;SDS011;6597;52.218;9.882;2024-02-26T13:25:34;7.20;;;3.97;;
13061;SDS011;6597;52.218;9.882;2024-02-26T13:28:07;5.70;;;3.50;;
13061;SDS011;6597;52.218;9.882;2024-02-26T13:30:34;5.90;;;3.90;;
13061;SDS011;6597;52.218;9.882;2024-02-26T13:33:07;5.20;;;4.10;;
13061;SDS011;6597;52.218;9.882;2024-02-26T13:35:34;6.73;;;4.03;;
13061;SDS011;6597;52.218;9.882;2024-02-26T13:38:01;6.40;;;4.50;;
13061;SDS011;6597;52.218;9.882;2024-02-26T13:40:28;6.93;;;3.60;;
13061;SDS011;6597;52.218;9.882;2024-02-26T13:42:55;6.53;;;4.03;;
13061;SDS011;6597;52.218;9.882;2024-02-26T13:45:23;10.70;;;4.27;;
13061;SDS011;6597;52.218;9.882;2024-02-26T13:47:49;6.33;;;3.70;;
13061;SDS011;6597;52.218;9.882;2024-02-26T13:50:16;4.77;;;3.80;;
13061;SDS011;6597;52.218;9.882;2024-02-26T13:52:46;6.63;;;4.17;;
13061;SDS011;6597;52.218;9.882;2024-02-26T13:55:18;5.90;;;4.40;;
13061;SDS011;6597;52.218;9.882;2024-02-26T13:57:45;6.23;;;3.87;;
13061;SDS011;6597;52.218;9.882;2024-02-26T14:00:13;6.73;;;4.27;;
13061;SDS011;6597;52.218;9.882;2024-02-26T14:02:42;6.53;;;4.43;;
13061;SDS011;6597;52.218;9.882;2024-02-26T14:05:08;5.80;;;4.17;;
13061;SDS011;6597;52.218;9.882;2024-02-26T14:07:36;7.00;;;4.23;;
13061;SDS011;6597;52.218;9.882;2024-02-26T14:10:03;7.73;;;4.60;;
13061;SDS011;6597;52.218;9.882;2024-02-26T14:12:30;6.37;;;3.77;;
13061;SDS011;6597;52.218;9.882;2024-02-26T14:14:56;5.53;;;4.07;;
13061;SDS011;6597;52.218;9.882;2024-02-26T14:17:25;6.10;;;4.30;;
13061;SDS011;6597;52.218;9.882;2024-02-26T14:19:53;7.50;;;4.60;;
13061;SDS011;6597;52.218;9.882;2024-02-26T14:22:20;7.13;;;4.50;;
13061;SDS011;6597;52.218;9.882;2024-02-26T14:24:46;6.33;;;4.97;;
13061;SDS011;6597;52.218;9.882;2024-02-26T14:27:13;7.63;;;4.87;;
13061;SDS011;6597;52.218;9.882;2024-02-26T14:29:41;7.37;;;4.73;;
13061;SDS011;6597;52.218;9.882;2024-02-26T14:32:08;9.97;;;5.17;;
13061;SDS011;6597;52.218;9.882;2024-02-26T14:34:35;7.73;;;5.03;;
13061;SDS011;6597;52.218;9.882;2024-02-26T14:37:03;9.00;;;5.20;;
13061;SDS011;6597;52.218;9.882;2024-02-26T14:39:30;6.63;;;4.20;;
13061;SDS011;6597;52.218;9.882;2024-02-26T14:41:57;8.37;;;5.13;;
13061;SDS011;6597;52.218;9.882;2024-02-26T14:44:24;15.93;;;5.00;;
13061;SDS011;6597;52.218;9.882;2024-02-26T14:46:51;9.33;;;4.73;;
13061;SDS011;6597;52.218;9.882;2024-02-26T14:49:18;7.73;;;4.70;;
13061;SDS011;6597;52.218;9.882;2024-02-26T14:51:45;6.07;;;4.67;;
13061;SDS011;6597;52.218;9.882;2024-02-26T14:54:13;9.93;;;5.37;;
13061;SDS011;6597;52.218;9.882;2024-02-26T14:56:40;15.93;;;5.73;;
13061;SDS011;6597;52.218;9.882;2024-02-26T14:59:06;18.03;;;5.63;;
13061;SDS011;6597;52.218;9.882;2024-02-26T15:01:33;13.03;;;4.80;;